Time;durP1;ratioP1;P1;durP2;ratioP2;P2;SDS_P1;SDS_P2;PMS_P1;PMS_P2;Temp;Humidity;BMP_temperature;BMP_pressure;BME280_temperature;BME280_humidity;BME280_pressure;Samples;Min_cycle;Max_cycle;Signal;HPM_P1;HPM_P2
2021/01/31 00:02:23;;;;;;;35.58;10.98;;;-6.10;99.90;;;;;;5035461;28;20041;-55
2021/01/31 00:04:49;;;;;;;31.20;11.20;;;-6.10;99.90;;;;;;5035241;28;20389;-52
2021/01/31 00:07:16;;;;;;;35.83;11.88;;;-6.20;99.90;;;;;;5035641;28;20022;-56
2021/01/31 00:09:42;;;;;;;31.57;10.90;;;-6.30;99.90;;;;;;5035217;28;20068;-55
2021/01/31 00:12:08;;;;;;;35.13;11.35;;;-6.30;99.90;;;;;;5034366;28;20091;-53
2021/01/31 00:14:34;;;;;;;25.50;10.73;;;-6.40;99.90;;;;;;5035361;28;20033;-53
2021/01/31 00:17:00;;;;;;;33.67;11.73;;;-6.40;99.90;;;;;;5035094;28;20034;-54
2021/01/31 00:19:26;;;;;;;23.27;8.43;;;-6.50;99.90;;;;;;5035149;28;20083;-56
2021/01/31 00:22:01;;;;;;;31.77;12.07;;;-6.50;99.90;;;;;;5035121;28;20370;-55
2021/01/31 00:24:27;;;;;;;28.40;9.07;;;-6.60;99.90;;;;;;5034791;28;20030;-52
2021/01/31 00:26:52;;;;;;;28.57;10.20;;;-6.60;99.90;;;;;;5034132;28;20028;-54
2021/01/31 00:29:19;;;;;;;32.07;9.80;;;-6.70;99.90;;;;;;5035073;28;20187;-55
2021/01/31 00:31:46;;;;;;;28.67;10.40;;;-6.70;99.90;;;;;;5022069;28;20481;-54
2021/01/31 00:34:11;;;;;;;31.77;10.80;;;-6.80;99.90;;;;;;5027979;28;20021;-54
2021/01/31 00:36:37;;;;;;;31.47;12.63;;;-6.80;99.90;;;;;;5034964;28;20084;-53
2021/01/31 00:39:03;;;;;;;23.30;9.43;;;-6.90;99.90;;;;;;5034474;28;20048;-54
2021/01/31 00:41:28;;;;;;;29.73;9.53;;;-6.90;99.90;;;;;;5032968;28;20030;-54
2021/01/31 00:43:54;;;;;;;20.50;8.40;;;-7.00;99.90;;;;;;5034687;28;20045;-55
2021/01/31 00:46:19;;;;;;;27.87;9.10;;;-7.10;99.90;;;;;;5050113;28;20033;-51
2021/01/31 00:48:45;;;;;;;22.67;8.57;;;-7.10;99.90;;;;;;5034959;28;20393;-53
2021/01/31 00:51:10;;;;;;;21.60;7.33;;;-7.10;99.90;;;;;;5036780;28;20033;-56
2021/01/31 00:53:35;;;;;;;15.83;6.97;;;-7.20;99.90;;;;;;5037167;28;20126;-54
2021/01/31 00:56:01;;;;;;;20.60;8.53;;;-7.20;99.90;;;;;;5036476;28;20037;-55
2021/01/31 00:58:26;;;;;;;22.73;8.20;;;-7.20;99.90;;;;;;5034686;28;20167;-54
2021/01/31 01:00:52;;;;;;;16.63;7.37;;;-7.30;99.90;;;;;;5034238;28;20048;-55
2021/01/31 01:03:17;;;;;;;15.70;6.77;;;-7.30;99.90;;;;;;5034387;28;20033;-52
2021/01/31 01:05:43;;;;;;;14.13;5.93;;;-7.30;99.90;;;;;;5034401;28;20036;-55
2021/01/31 01:08:08;;;;;;;15.50;6.73;;;-7.40;99.90;;;;;;5033962;28;20064;-54
2021/01/31 01:10:35;;;;;;;13.40;6.27;;;-7.40;99.90;;;;;;5031781;28;20026;-55
2021/01/31 01:13:02;;;;;;;17.07;7.20;;;-7.40;99.90;;;;;;5033935;28;20033;-54
2021/01/31 01:15:28;;;;;;;14.20;6.57;;;-7.50;99.90;;;;;;5034040;28;20053;-53
2021/01/31 01:17:56;;;;;;;17.30;6.83;;;-7.50;99.90;;;;;;5034172;28;20460;-52
2021/01/31 01:20:22;;;;;;;16.40;7.40;;;-7.50;99.90;;;;;;5034242;28;20040;-54
2021/01/31 01:22:49;;;;;;;17.23;7.00;;;-7.50;99.90;;;;;;5034035;28;20018;-54
2021/01/31 01:25:16;;;;;;;13.13;7.10;;;-7.60;99.90;;;;;;5033849;28;20112;-54
2021/01/31 01:27:42;;;;;;;11.07;5.53;;;-7.60;99.90;;;;;;5033380;28;20022;-49
2021/01/31 01:30:10;;;;;;;14.27;7.03;;;-7.70;99.90;;;;;;5033889;28;20380;-52
2021/01/31 01:32:37;;;;;;;13.10;6.53;;;-7.70;99.90;;;;;;5036667;28;20021;-54
2021/01/31 01:35:07;;;;;;;10.30;4.63;;;-7.70;99.90;;;;;;5037093;28;20518;-55
2021/01/31 01:37:33;;;;;;;13.80;6.37;;;-7.70;99.90;;;;;;5022816;28;20065;-51
2021/01/31 01:39:58;;;;;;;14.07;6.07;;;-7.70;99.90;;;;;;5033492;28;20091;-53
2021/01/31 01:42:24;;;;;;;14.33;6.53;;;-7.70;99.90;;;;;;5032928;28;20037;-53
2021/01/31 01:44:49;;;;;;;19.73;8.40;;;-7.80;99.90;;;;;;5033550;28;20029;-54
2021/01/31 01:47:18;;;;;;;16.30;7.70;;;-7.70;99.90;;;;;;5033451;28;20034;-54
2021/01/31 01:49:45;;;;;;;19.17;7.60;;;-7.80;99.90;;;;;;5033560;28;20089;-56
2021/01/31 01:52:14;;;;;;;19.93;8.90;;;-7.80;99.90;;;;;;5033264;28;20024;-53
2021/01/31 01:54:44;;;;;;;27.00;9.90;;;-7.80;99.90;;;;;;5033519;28;20049;-54
2021/01/31 01:57:17;;;;;;;21.90;9.30;;;-7.90;99.90;;;;;;5032321;28;20029;-55
2021/01/31 01:59:43;;;;;;;16.70;7.83;;;-7.90;99.90;;;;;;5033556;28;20030;-54
2021/01/31 02:02:23;;;;;;;19.87;8.03;;;-7.90;99.90;;;;;;5033346;28;20212;-53
2021/01/31 02:04:49;;;;;;;19.73;7.10;;;-7.90;99.90;;;;;;5033583;28;20468;-52
2021/01/31 02:07:17;;;;;;;18.67;8.70;;;-8.00;99.90;;;;;;5033402;28;20036;-51
2021/01/31 02:09:47;;;;;;;20.30;8.80;;;-8.00;99.90;;;;;;5050875;28;20473;-52
2021/01/31 02:12:14;;;;;;;16.97;8.27;;;-8.10;99.90;;;;;;5036785;28;20800;-55
2021/01/31 02:14:46;;;;;;;24.37;9.90;;;-8.20;99.90;;;;;;5024897;28;20381;-52
2021/01/31 02:17:25;;;;;;;18.60;8.20;;;-8.20;99.90;;;;;;5028795;28;20021;-54
2021/01/31 02:20:15;;;;;;;20.63;8.30;;;-8.20;99.90;;;;;;5032656;28;20473;-54
2021/01/31 02:23:12;;;;;;;17.37;7.80;;;-8.20;99.90;;;;;;5032619;28;20365;-53
2021/01/31 02:25:52;;;;;;;;;;;-8.30;99.90;;;;;;5032310;28;20034;-49
2021/01/31 02:28:55;;;;;;;16.00;8.20;;;-8.30;99.90;;;;;;5032815;28;19920;-52
2021/01/31 02:32:00;;;;;;;10.83;6.37;;;-8.30;99.90;;;;;;5021660;28;20022;-56
2021/01/31 02:34:39;;;;;;;19.43;9.50;;;-8.30;99.90;;;;;;5031904;28;20030;-53
2021/01/31 02:37:08;;;;;;;14.77;8.13;;;-8.30;99.90;;;;;;5032678;28;20619;-52
2021/01/31 02:39:56;;;;;;;15.60;7.47;;;-8.30;99.90;;;;;;5032505;28;20022;-54
2021/01/31 02:42:33;;;;;;;14.23;6.40;;;-8.30;99.90;;;;;;5031294;28;20033;-54
2021/01/31 02:45:13;;;;;;;13.03;6.80;;;-8.40;99.90;;;;;;5020681;28;20029;-51
2021/01/31 02:47:44;;;;;;;9.80;5.30;;;-8.40;99.90;;;;;;5032462;28;20116;-55
2021/01/31 02:50:19;;;;;;;13.37;6.17;;;-8.40;99.90;;;;;;5032347;28;20033;-53
2021/01/31 02:53:09;;;;;;;7.88;4.38;;;-8.50;99.90;;;;;;5032370;28;20029;-52
2021/01/31 02:55:43;;;;;;;15.87;6.00;;;-8.50;99.90;;;;;;5027058;28;20518;-51
2021/01/31 02:58:16;;;;;;;12.77;5.70;;;-8.50;99.90;;;;;;5032077;28;20029;-55
2021/01/31 03:00:53;;;;;;;12.83;5.87;;;-8.50;99.90;;;;;;5032995;28;20057;-52
2021/01/31 03:03:28;;;;;;;11.60;6.27;;;-8.60;99.90;;;;;;5033028;28;20025;-53
2021/01/31 03:05:57;;;;;;;10.40;5.80;;;-8.60;99.90;;;;;;5033019;28;20096;-52
2021/01/31 03:08:32;;;;;;;15.00;6.57;;;-8.60;99.90;;;;;;5033069;28;20369;-52
2021/01/31 03:11:06;;;;;;;15.93;7.50;;;-8.70;99.90;;;;;;5047378;28;20508;-51
2021/01/31 03:14:20;;;;;;;11.83;6.33;;;-8.70;99.90;;;;;;5031566;28;20033;-52
2021/01/31 03:16:55;;;;;;;12.27;6.77;;;-8.70;99.90;;;;;;5020724;28;20073;-52
2021/01/31 03:19:50;;;;;;;10.02;5.80;;;-8.80;99.90;;;;;;5032931;28;20135;-53
2021/01/31 03:22:25;;;;;;;9.27;4.73;;;-8.80;99.90;;;;;;5047842;28;20481;-54
2021/01/31 03:24:56;;;;;;;7.77;5.10;;;-8.80;99.90;;;;;;5032771;28;20014;-55
2021/01/31 03:27:28;;;;;;;10.10;5.23;;;-8.80;99.90;;;;;;5031596;28;20057;-55
2021/01/31 03:29:53;;;;;;;14.60;5.90;;;-8.90;99.90;;;;;;5048157;28;20026;-54
2021/01/31 03:32:27;;;;;;;12.93;6.33;;;-8.90;99.90;;;;;;5033063;28;20104;-55
2021/01/31 03:34:57;;;;;;;11.40;5.70;;;-8.90;99.90;;;;;;5052642;28;20032;-53
2021/01/31 03:37:31;;;;;;;9.77;5.87;;;-9.00;99.90;;;;;;5052238;28;20063;-54
2021/01/31 03:39:59;;;;;;;12.23;5.93;;;-9.00;99.90;;;;;;5052577;28;20040;-54
2021/01/31 03:42:26;;;;;;;11.13;5.73;;;-9.00;99.90;;;;;;5051287;28;20028;-53
2021/01/31 03:44:55;;;;;;;12.47;5.70;;;-9.00;99.90;;;;;;5052538;28;20425;-51
2021/01/31 03:47:44;;;;;;;7.37;5.23;;;-9.00;99.90;;;;;;5052217;28;20032;-53
2021/01/31 03:50:10;;;;;;;9.77;6.03;;;-9.00;99.90;;;;;;5049531;28;20040;-51
2021/01/31 03:52:38;;;;;;;8.03;4.97;;;-9.00;99.90;;;;;;5032524;28;20033;-55
2021/01/31 03:55:04;;;;;;;8.00;5.17;;;-9.00;99.90;;;;;;5032415;28;20389;-52
2021/01/31 03:57:43;;;;;;;14.93;6.43;;;-8.90;99.90;;;;;;5031197;28;20037;-54
2021/01/31 04:00:19;;;;;;;11.03;4.97;;;-8.90;99.90;;;;;;5032347;28;20025;-52
2021/01/31 04:03:08;;;;;;;;;;;-8.80;99.90;;;;;;5032763;28;20029;-52
2021/01/31 04:05:35;;;;;;;12.30;5.40;;;-8.80;99.90;;;;;;5032278;28;19909;-52
2021/01/31 04:08:05;;;;;;;9.73;5.60;;;-8.70;99.90;;;;;;5032332;28;20028;-55
2021/01/31 04:10:31;;;;;;;13.17;6.27;;;-8.70;99.90;;;;;;5031296;28;20039;-52
2021/01/31 04:13:01;;;;;;;8.00;5.10;;;-8.60;99.90;;;;;;5030727;28;20137;-55
2021/01/31 04:15:51;;;;;;;12.20;6.87;;;-8.50;99.90;;;;;;5032099;28;20124;-52
2021/01/31 04:18:19;;;;;;;11.70;5.83;;;-8.40;99.90;;;;;;5032181;28;20037;-51
2021/01/31 04:20:45;;;;;;;10.23;6.10;;;-8.30;99.90;;;;;;5032114;28;20025;-56
2021/01/31 04:23:12;;;;;;;14.50;6.20;;;-8.30;99.90;;;;;;5032002;28;20095;-54
2021/01/31 04:25:38;;;;;;;10.27;5.73;;;-8.10;99.90;;;;;;5031002;28;20564;-54
2021/01/31 04:28:15;;;;;;;8.37;4.47;;;-8.10;99.90;;;;;;5032210;28;20104;-54
2021/01/31 04:30:42;;;;;;;14.27;6.07;;;-8.00;99.90;;;;;;5032041;28;20036;-54
2021/01/31 04:33:09;;;;;;;13.90;7.13;;;-8.00;99.90;;;;;;5039626;28;20025;-55
2021/01/31 04:35:35;;;;;;;15.50;6.27;;;-8.00;99.90;;;;;;5051614;28;20044;-56
2021/01/31 04:38:00;;;;;;;15.37;5.73;;;-7.90;99.90;;;;;;5051923;28;20405;-55
2021/01/31 04:40:27;;;;;;;9.60;4.73;;;-7.90;99.90;;;;;;5066713;28;20032;-54
2021/01/31 04:42:53;;;;;;;15.33;5.30;;;-7.80;99.90;;;;;;5051445;28;20032;-51
2021/01/31 04:45:19;;;;;;;13.20;5.17;;;-7.70;99.90;;;;;;5054695;28;20029;-54
2021/01/31 04:48:05;;;;;;;10.50;5.40;;;-7.70;99.90;;;;;;5055478;28;20052;-55
2021/01/31 04:50:42;;;;;;;10.45;4.97;;;-7.70;99.90;;;;;;5018840;28;20089;-55
2021/01/31 04:53:47;;;;;;;12.97;5.10;;;-7.60;99.90;;;;;;5034158;28;20492;-55
2021/01/31 04:56:43;;;;;;;12.07;5.87;;;-7.50;99.90;;;;;;5034413;28;20030;-51
2021/01/31 04:59:20;;;;;;;8.20;4.78;;;-7.50;99.90;;;;;;5035484;28;20108;-56
2021/01/31 05:01:46;;;;;;;7.57;4.20;;;-7.40;99.90;;;;;;5035237;28;20513;-54
2021/01/31 05:04:13;;;;;;;8.80;4.97;;;-7.40;99.90;;;;;;5035511;28;20076;-54
2021/01/31 05:06:45;;;;;;;10.87;5.80;;;-7.30;99.90;;;;;;5035160;28;20500;-52
2021/01/31 05:09:20;;;;;;;11.67;5.00;;;-7.20;99.90;;;;;;5035202;28;20068;-53
2021/01/31 05:11:59;;;;;;;10.33;5.00;;;-7.20;99.90;;;;;;5032789;28;20052;-54
2021/01/31 05:15:00;;;;;;;9.30;4.37;;;-7.20;99.90;;;;;;5035080;28;20060;-55
2021/01/31 05:17:25;;;;;;;10.93;5.70;;;-7.20;99.90;;;;;;5034937;28;20021;-52
2021/01/31 05:19:51;;;;;;;9.70;4.63;;;-7.10;99.90;;;;;;5035145;28;20083;-54
2021/01/31 05:22:25;;;;;;;9.27;4.47;;;-7.10;99.90;;;;;;5034916;28;20028;-53
2021/01/31 05:24:53;;;;;;;11.30;5.90;;;-7.10;99.90;;;;;;5050477;28;20025;-54
2021/01/31 05:27:19;;;;;;;10.33;5.63;;;-7.10;99.90;;;;;;5032655;28;20068;-49
2021/01/31 05:29:45;;;;;;;16.00;6.10;;;-7.00;99.90;;;;;;5034841;28;20021;-52
2021/01/31 05:32:12;;;;;;;14.07;5.57;;;-7.00;99.90;;;;;;5034599;28;20033;-54
2021/01/31 05:34:52;;;;;;;20.20;7.10;;;-6.90;99.90;;;;;;5054651;28;20523;-53
2021/01/31 05:37:22;;;;;;;13.27;5.50;;;-6.90;99.90;;;;;;5054577;28;20029;-53
2021/01/31 05:39:59;;;;;;;12.93;4.90;;;-6.90;99.90;;;;;;5054661;28;20060;-55
2021/01/31 05:42:29;;;;;;;11.40;4.53;;;-6.90;99.90;;;;;;5053307;28;20044;-51
2021/01/31 05:45:29;;;;;;;19.50;6.67;;;-6.90;99.90;;;;;;5054541;28;20052;-55
2021/01/31 05:47:55;;;;;;;11.33;5.63;;;-6.80;99.90;;;;;;5054499;28;20025;-55
2021/01/31 05:50:34;;;;;;;13.87;5.97;;;-6.80;99.90;;;;;;5050319;28;20071;-55
2021/01/31 05:53:30;;;;;;;10.67;5.30;;;-6.90;99.90;;;;;;5034157;28;20044;-53
2021/01/31 05:56:25;;;;;;;12.23;5.37;;;-6.90;99.90;;;;;;5033392;28;20508;-52
2021/01/31 05:59:08;;;;;;;12.97;6.43;;;-7.00;99.90;;;;;;5034553;28;20442;-55
2021/01/31 06:02:14;;;;;;;12.03;5.60;;;-7.10;99.90;;;;;;5033819;28;20052;-52
2021/01/31 06:04:40;;;;;;;11.60;4.70;;;-7.10;99.90;;;;;;5010884;28;20075;-54
2021/01/31 06:07:11;;;;;;;15.47;5.60;;;-7.10;99.90;;;;;;5034199;28;20021;-54
2021/01/31 06:09:55;;;;;;;15.07;5.77;;;-7.10;99.90;;;;;;5033971;28;20140;-54
2021/01/31 06:12:20;;;;;;;11.87;5.13;;;-7.10;99.90;;;;;;5032968;28;20025;-55
2021/01/31 06:15:19;;;;;;;19.17;6.07;;;-7.10;99.90;;;;;;5034088;28;20055;-51
2021/01/31 06:17:56;;;;;;;12.73;5.07;;;-7.10;99.90;;;;;;5020393;28;20147;-53
2021/01/31 06:20:36;;;;;;;12.93;6.33;;;-7.00;99.90;;;;;;5033883;28;20116;-49
2021/01/31 06:23:03;;;;;;;16.03;6.23;;;-7.00;99.90;;;;;;5033585;28;20029;-55
2021/01/31 06:25:38;;;;;;;15.77;6.87;;;-7.00;99.90;;;;;;5032906;28;20104;-54
2021/01/31 06:28:09;;;;;;;9.05;5.03;;;-7.00;99.90;;;;;;5033873;28;20321;-54
2021/01/31 06:30:54;;;;;;;19.17;8.00;;;-6.90;99.90;;;;;;5033653;28;20037;-53
2021/01/31 06:33:20;;;;;;;16.50;6.10;;;-6.90;99.90;;;;;;5042761;28;20029;-51
2021/01/31 06:35:54;;;;;;;15.43;5.27;;;-6.80;99.90;;;;;;5053540;28;20040;-52
2021/01/31 06:38:37;;;;;;;14.67;5.77;;;-6.80;99.90;;;;;;5053529;28;20040;-49
2021/01/31 06:41:27;;;;;;;15.80;6.00;;;-6.70;99.90;;;;;;5052412;28;20017;-54
2021/01/31 06:44:05;;;;;;;17.67;6.27;;;-6.70;99.90;;;;;;5053400;28;20033;-53
2021/01/31 06:46:54;;;;;;;19.73;8.00;;;-6.70;99.90;;;;;;5053072;28;20043;-53
2021/01/31 06:49:33;;;;;;;18.10;6.70;;;-6.70;99.90;;;;;;5053191;28;20024;-52
2021/01/31 06:52:17;;;;;;;16.10;6.07;;;-6.80;99.90;;;;;;5035651;28;20044;-53
2021/01/31 06:55:26;;;;;;;24.30;8.50;;;-6.80;99.90;;;;;;5033129;28;20122;-52
2021/01/31 06:58:18;;;;;;;20.20;9.20;;;-6.80;99.90;;;;;;5026308;28;20042;-54
2021/01/31 07:01:16;;;;;;;24.17;9.97;;;-6.80;99.90;;;;;;5033295;28;20440;-56
2021/01/31 07:04:02;;;;;;;16.97;7.17;;;-6.70;99.90;;;;;;5032865;28;20025;-51
2021/01/31 07:06:36;;;;;;;21.92;8.80;;;-6.70;99.90;;;;;;5031308;28;20488;-54
2021/01/31 07:09:09;;;;;;;35.20;12.23;;;-6.70;99.90;;;;;;5033202;28;20047;-50
2021/01/31 07:11:53;;;;;;;27.93;10.83;;;-6.70;99.90;;;;;;5031991;28;20487;-53
2021/01/31 07:14:45;;;;;;;26.87;8.83;;;-6.70;99.90;;;;;;5033004;28;20053;-53
2021/01/31 07:17:20;;;;;;;32.77;10.47;;;-6.60;99.90;;;;;;5032747;28;20029;-52
2021/01/31 07:19:49;;;;;;;21.80;7.57;;;-6.60;99.90;;;;;;5032946;28;20026;-54
2021/01/31 07:22:14;;;;;;;24.80;8.90;;;-6.50;99.90;;;;;;5032795;28;20120;-54
2021/01/31 07:24:46;;;;;;;23.97;7.83;;;-6.50;99.90;;;;;;5032650;28;20061;-55
2021/01/31 07:27:30;;;;;;;25.80;8.63;;;-6.40;99.90;;;;;;5030738;28;20025;-53
2021/01/31 07:30:11;;;;;;;14.83;6.10;;;-6.40;99.90;;;;;;5029628;28;20120;-49
2021/01/31 07:33:06;;;;;;;31.90;8.63;;;-6.30;99.90;;;;;;5030674;28;20035;-52
2021/01/31 07:36:02;;;;;;;21.50;6.83;;;-6.20;99.90;;;;;;5030811;28;20022;-53
2021/01/31 07:38:34;;;;;;;24.47;7.83;;;-6.20;99.90;;;;;;5027845;28;20038;-55
2021/01/31 07:41:00;;;;;;;26.53;9.17;;;-6.10;99.90;;;;;;5030067;28;20034;-54
2021/01/31 07:43:29;;;;;;;20.30;7.17;;;-6.00;99.90;;;;;;5030568;28;20107;-52
2021/01/31 07:46:06;;;;;;;18.53;7.20;;;-5.90;99.90;;;;;;5030873;28;20033;-51
2021/01/31 07:48:31;;;;;;;23.33;8.03;;;-5.80;99.90;;;;;;5030504;28;20033;-53
2021/01/31 07:50:59;;;;;;;26.10;8.40;;;-5.70;99.90;;;;;;5030714;28;20047;-55
2021/01/31 07:53:31;;;;;;;20.07;7.60;;;-5.50;99.90;;;;;;5030452;28;20077;-53
2021/01/31 07:55:57;;;;;;;20.88;7.82;;;-5.20;99.90;;;;;;5025861;28;20041;-53
2021/01/31 07:58:25;;;;;;;20.00;7.57;;;-5.00;99.90;;;;;;5025883;28;20033;-52
2021/01/31 08:00:52;;;;;;;16.60;6.32;;;-4.80;99.90;;;;;;5017370;28;20038;-51
2021/01/31 08:03:38;;;;;;;16.67;6.43;;;-4.60;99.90;;;;;;5027204;28;20061;-52
2021/01/31 08:06:33;;;;;;;20.52;7.80;;;-4.40;99.90;;;;;;5029363;28;20026;-54
2021/01/31 08:08:58;;;;;;;15.45;6.15;;;-4.20;99.90;;;;;;5027793;28;20116;-54
2021/01/31 08:11:36;;;;;;;20.08;7.63;;;-4.00;99.90;;;;;;5020056;28;20104;-55
2021/01/31 08:14:03;;;;;;;13.32;5.65;;;-3.90;99.90;;;;;;5031434;28;20026;-54
2021/01/31 08:16:44;;;;;;;16.45;6.38;;;-3.80;99.90;;;;;;5030887;28;20029;-54
2021/01/31 08:19:10;;;;;;;17.15;7.25;;;-3.70;99.90;;;;;;5036125;28;20029;-52
2021/01/31 08:21:58;;;;;;;20.05;7.20;;;-3.60;99.90;;;;;;5028905;28;20029;-53
2021/01/31 08:25:03;;;;;;;16.55;7.13;;;-3.50;99.90;;;;;;5030999;28;20040;-55
2021/01/31 08:27:37;;;;;;;19.45;7.13;;;-3.40;99.90;;;;;;5031991;28;20028;-53
2021/01/31 08:30:22;;;;;;;26.08;8.43;;;-3.30;99.90;;;;;;5039773;28;20126;-56
2021/01/31 08:35:46;;;;;;;19.63;7.63;;;-3.10;99.90;;;;;;5031577;28;20046;-51
2021/01/31 08:38:13;;;;;;;;;;;-3.00;99.90;;;;;;5026050;28;20201;-53
2021/01/31 08:40:39;;;;;;;22.23;8.23;;;-2.90;99.90;;;;;;5038346;28;19914;-52
2021/01/31 08:43:09;;;;;;;20.27;7.78;;;-2.70;99.90;;;;;;5029719;28;20029;-52
2021/01/31 08:45:43;;;;;;;17.45;6.35;;;-2.60;99.90;;;;;;5023328;28;20147;-49
2021/01/31 08:48:09;;;;;;;18.27;6.88;;;-2.40;99.90;;;;;;5033560;28;20115;-56
2021/01/31 08:50:34;;;;;;;14.75;6.30;;;-2.30;99.90;;;;;;5028340;28;20497;-53
2021/01/31 08:53:04;;;;;;;18.73;8.52;;;-2.00;99.90;;;;;;5026735;28;20128;-54
2021/01/31 08:55:30;;;;;;;19.23;7.88;;;-1.90;99.90;;;;;;5013626;28;20030;-53
2021/01/31 08:57:59;;;;;;;16.98;7.43;;;-1.50;99.90;;;;;;5032719;28;20052;-54
2021/01/31 09:00:26;;;;;;;14.77;6.78;;;-0.80;99.90;;;;;;5032717;28;20394;-55
2021/01/31 09:02:52;;;;;;;15.15;6.38;;;-0.30;99.90;;;;;;5032884;28;20105;-52
2021/01/31 09:05:20;;;;;;;16.92;7.20;;;0.20;99.90;;;;;;5033765;28;20022;-49
2021/01/31 09:07:49;;;;;;;14.65;6.82;;;0.70;99.90;;;;;;5033606;28;20072;-53
2021/01/31 09:10:41;;;;;;;16.50;6.90;;;0.90;99.90;;;;;;5033747;28;20026;-53
2021/01/31 09:13:26;;;;;;;13.77;7.35;;;1.20;99.90;;;;;;5033455;28;20096;-56
2021/01/31 09:15:52;;;;;;;13.07;6.70;;;1.40;99.50;;;;;;5033499;28;20503;-54
2021/01/31 09:18:21;;;;;;;15.15;7.15;;;1.60;99.10;;;;;;5033480;28;20493;-51
2021/01/31 09:20:48;;;;;;;10.60;5.78;;;1.70;98.00;;;;;;5033143;28;20033;-54
2021/01/31 09:23:28;;;;;;;15.20;7.47;;;1.90;97.50;;;;;;5033376;28;20026;-56
2021/01/31 09:25:55;;;;;;;12.82;6.55;;;2.00;95.70;;;;;;5047681;28;20037;-52
2021/01/31 09:28:23;;;;;;;12.70;6.00;;;2.10;95.50;;;;;;5033335;28;20037;-55
2021/01/31 09:30:55;;;;;;;10.55;6.30;;;2.20;95.80;;;;;;5047968;28;20051;-52
2021/01/31 09:33:29;;;;;;;11.43;6.97;;;2.20;96.20;;;;;;5033723;28;20108;-53
2021/01/31 09:35:55;;;;;;;10.75;5.75;;;2.10;95.60;;;;;;5032645;28;20096;-54
2021/01/31 09:38:28;;;;;;;18.42;9.18;;;2.00;94.80;;;;;;5023136;28;20044;-54
2021/01/31 09:40:57;;;;;;;13.38;6.70;;;1.90;95.00;;;;;;5031999;28;20021;-54
2021/01/31 09:43:30;;;;;;;13.60;7.35;;;1.70;94.90;;;;;;5032521;28;20055;-55
2021/01/31 09:46:00;;;;;;;18.48;9.05;;;1.70;95.20;;;;;;5032657;28;20096;-50
2021/01/31 09:48:28;;;;;;;14.25;7.63;;;1.60;94.70;;;;;;5033156;28;20388;-51
2021/01/31 09:51:05;;;;;;;16.17;8.15;;;1.60;94.50;;;;;;5030948;28;20052;-56
2021/01/31 09:53:35;;;;;;;12.50;6.72;;;1.50;94.10;;;;;;5030224;28;20053;-53
2021/01/31 09:56:04;;;;;;;15.77;7.55;;;1.50;95.10;;;;;;5031572;28;20473;-52
2021/01/31 09:58:44;;;;;;;13.45;7.57;;;1.40;94.20;;;;;;5034932;28;20033;-50
2021/01/31 10:01:31;;;;;;;13.57;8.13;;;1.40;94.80;;;;;;5018778;28;20476;-51
2021/01/31 10:04:02;;;;;;;13.10;6.88;;;1.40;94.00;;;;;;5033360;28;20436;-55
2021/01/31 10:06:38;;;;;;;14.98;7.00;;;1.30;94.50;;;;;;5035553;28;20051;-56
2021/01/31 10:09:04;;;;;;;16.15;8.45;;;1.20;94.70;;;;;;5034721;28;20037;-58
2021/01/31 10:11:38;;;;;;;12.95;6.70;;;1.20;94.80;;;;;;5031689;28;20525;-56
2021/01/31 10:14:06;;;;;;;12.57;6.57;;;1.30;95.20;;;;;;5031830;28;20065;-56
2021/01/31 10:16:35;;;;;;;10.88;6.47;;;1.30;94.80;;;;;;5034369;28;20113;-55
2021/01/31 10:19:15;;;;;;;10.45;6.03;;;1.30;95.10;;;;;;5044551;28;20540;-53
2021/01/31 10:21:57;;;;;;;9.98;6.05;;;1.30;95.30;;;;;;5027791;28;20132;-53
2021/01/31 10:24:25;;;;;;;10.38;5.72;;;1.30;95.30;;;;;;5032413;28;20025;-52
2021/01/31 10:27:06;;;;;;;9.68;5.25;;;1.30;95.10;;;;;;5031861;28;20053;-53
2021/01/31 10:29:32;;;;;;;7.90;4.28;;;1.20;94.80;;;;;;5038167;28;20049;-52
2021/01/31 10:32:17;;;;;;;9.55;4.78;;;1.20;95.10;;;;;;5019696;28;20109;-51
2021/01/31 10:34:42;;;;;;;8.75;5.38;;;1.20;95.20;;;;;;5025105;28;20068;-55
2021/01/31 10:37:38;;;;;;;10.20;5.68;;;1.20;95.30;;;;;;5033694;28;20029;-54
2021/01/31 10:40:06;;;;;;;7.72;4.07;;;1.10;95.40;;;;;;5031287;28;20041;-55
2021/01/31 10:42:33;;;;;;;9.50;5.15;;;1.00;95.10;;;;;;5030082;28;20029;-54
2021/01/31 10:45:21;;;;;;;9.45;5.13;;;0.90;95.50;;;;;;5031602;28;20034;-53
2021/01/31 10:47:47;;;;;;;8.13;4.90;;;0.90;95.70;;;;;;5031790;28;20080;-55
2021/01/31 10:50:15;;;;;;;9.50;4.90;;;0.80;96.10;;;;;;5039649;28;20071;-53
2021/01/31 10:52:42;;;;;;;8.80;4.88;;;0.70;95.60;;;;;;5025794;28;20026;-52
2021/01/31 10:55:10;;;;;;;10.88;5.70;;;0.50;96.00;;;;;;5031149;28;20065;-53
2021/01/31 10:57:36;;;;;;;8.93;4.88;;;0.50;96.30;;;;;;5030578;28;20030;-54
2021/01/31 11:00:08;;;;;;;8.50;4.82;;;0.40;96.40;;;;;;5031464;28;20366;-55
2021/01/31 11:02:34;;;;;;;8.88;5.25;;;0.30;96.40;;;;;;5031599;28;20030;-50
2021/01/31 11:04:59;;;;;;;7.05;4.32;;;0.20;96.60;;;;;;5031441;28;20037;-52
2021/01/31 11:07:25;;;;;;;10.38;5.60;;;0.20;96.50;;;;;;5031605;28;20428;-54
2021/01/31 11:09:51;;;;;;;12.65;4.90;;;0.10;96.30;;;;;;5031318;28;20419;-50
2021/01/31 11:12:16;;;;;;;7.05;4.35;;;0.10;96.80;;;;;;5030416;28;20524;-50
2021/01/31 11:14:42;;;;;;;9.85;5.35;;;0.00;96.50;;;;;;5031516;28;20029;-53
2021/01/31 11:17:08;;;;;;;7.78;4.45;;;0.00;96.70;;;;;;5031068;28;20029;-54
2021/01/31 11:19:33;;;;;;;8.40;4.55;;;-0.10;96.40;;;;;;5031384;28;20100;-55
2021/01/31 11:21:59;;;;;;;10.45;5.18;;;-0.10;96.90;;;;;;5046439;28;20526;-55
2021/01/31 11:24:24;;;;;;;12.23;5.57;;;-0.10;96.80;;;;;;5031287;28;20056;-54
2021/01/31 11:26:50;;;;;;;8.70;5.00;;;-0.10;96.90;;;;;;5045336;28;20108;-51
2021/01/31 11:29:15;;;;;;;10.57;5.07;;;-0.10;96.70;;;;;;5046348;28;20018;-53
2021/01/31 11:31:41;;;;;;;7.70;4.00;;;-0.10;96.40;;;;;;5031318;28;20044;-54
2021/01/31 11:34:07;;;;;;;8.48;4.63;;;-0.20;96.40;;;;;;5043778;28;20026;-55
2021/01/31 11:36:32;;;;;;;8.90;5.05;;;-0.10;96.10;;;;;;5032621;28;20425;-52
2021/01/31 11:39:06;;;;;;;10.32;5.50;;;-0.20;96.20;;;;;;5028464;28;20424;-52
2021/01/31 11:41:31;;;;;;;10.13;4.75;;;-0.20;96.10;;;;;;5030082;28;20040;-56
2021/01/31 11:43:57;;;;;;;7.97;4.20;;;-0.10;95.70;;;;;;5030774;28;20029;-50
2021/01/31 11:46:22;;;;;;;7.75;4.65;;;-0.20;95.70;;;;;;5031607;28;20025;-50
2021/01/31 11:48:48;;;;;;;12.02;6.15;;;-0.20;95.80;;;;;;5034964;28;20104;-50
2021/01/31 11:51:13;;;;;;;6.72;3.95;;;-0.10;95.80;;;;;;5017860;28;20030;-54
2021/01/31 11:53:39;;;;;;;7.93;3.78;;;-0.10;95.20;;;;;;5020202;28;20049;-52
2021/01/31 11:56:04;;;;;;;6.47;3.60;;;-0.10;94.90;;;;;;5030390;28;20025;-50
2021/01/31 11:58:30;;;;;;;6.65;4.25;;;-0.10;94.30;;;;;;5031398;28;20469;-53
2021/01/31 12:00:55;;;;;;;7.30;3.78;;;-0.10;94.80;;;;;;5031428;28;20079;-54
2021/01/31 12:03:21;;;;;;;6.93;4.20;;;-0.10;94.70;;;;;;5031485;28;20140;-53
2021/01/31 12:05:46;;;;;;;6.95;4.15;;;-0.10;94.40;;;;;;5031489;28;20033;-53
2021/01/31 12:08:12;;;;;;;7.78;4.28;;;-0.10;94.20;;;;;;5046325;28;20021;-54
2021/01/31 12:10:37;;;;;;;8.60;4.30;;;-0.10;94.50;;;;;;5030321;28;20148;-52
2021/01/31 12:13:03;;;;;;;8.25;5.00;;;-0.10;94.50;;;;;;5031282;28;20029;-50
2021/01/31 12:15:28;;;;;;;6.10;4.18;;;-0.10;94.40;;;;;;5031364;28;20037;-53
2021/01/31 12:17:54;;;;;;;8.10;4.63;;;-0.10;94.30;;;;;;5031560;28;20080;-52
2021/01/31 12:20:19;;;;;;;7.50;4.05;;;0.00;93.50;;;;;;5031216;28;20056;-52
2021/01/31 12:22:47;;;;;;;6.53;3.55;;;0.00;93.90;;;;;;5031335;28;20031;-50
2021/01/31 12:25:15;;;;;;;6.05;3.55;;;-0.10;94.00;;;;;;5030635;28;20017;-51
2021/01/31 12:27:49;;;;;;;8.10;4.50;;;0.00;93.60;;;;;;5031298;28;20017;-52
2021/01/31 12:30:21;;;;;;;8.15;5.03;;;0.00;94.10;;;;;;5031102;28;20021;-55
2021/01/31 12:32:46;;;;;;;9.25;4.80;;;0.00;93.90;;;;;;5031233;28;20033;-54
2021/01/31 12:35:12;;;;;;;6.63;3.83;;;0.00;94.00;;;;;;5030984;28;20473;-53
2021/01/31 12:37:38;;;;;;;8.93;4.65;;;-0.10;93.80;;;;;;5031143;28;20500;-51
2021/01/31 12:40:05;;;;;;;6.80;4.40;;;-0.10;93.80;;;;;;5031017;28;20034;-52
2021/01/31 12:42:31;;;;;;;12.30;6.28;;;-0.10;93.90;;;;;;5030285;28;20049;-55
2021/01/31 12:44:56;;;;;;;9.13;5.43;;;0.00;93.60;;;;;;5031227;28;20029;-53
2021/01/31 12:47:22;;;;;;;9.57;5.25;;;0.10;91.50;;;;;;5031146;28;20384;-53
2021/01/31 12:49:47;;;;;;;8.73;4.85;;;0.20;91.60;;;;;;5030948;28;20030;-54
2021/01/31 12:52:13;;;;;;;7.28;4.13;;;0.20;91.80;;;;;;5030913;28;20028;-54
2021/01/31 12:54:39;;;;;;;8.15;4.68;;;0.10;92.00;;;;;;5030602;28;20053;-54
2021/01/31 12:57:05;;;;;;;7.13;4.13;;;0.10;92.40;;;;;;5030089;28;20060;-51
2021/01/31 12:59:30;;;;;;;5.60;3.08;;;0.10;91.40;;;;;;5030865;28;20021;-54
2021/01/31 13:01:56;;;;;;;8.45;4.90;;;0.10;92.10;;;;;;5031094;28;20381;-52
2021/01/31 13:04:21;;;;;;;7.32;4.20;;;0.10;91.40;;;;;;5030862;28;20032;-52
2021/01/31 13:06:47;;;;;;;9.60;4.30;;;0.00;91.50;;;;;;5034355;28;20477;-52
2021/01/31 13:09:12;;;;;;;6.13;3.70;;;0.00;91.20;;;;;;5034570;28;20104;-51
2021/01/31 13:11:38;;;;;;;7.03;3.83;;;0.00;91.60;;;;;;5033450;28;20468;-50
2021/01/31 13:14:03;;;;;;;6.32;4.15;;;0.00;91.00;;;;;;5034404;28;20025;-53